Weather

*Note: Some stations are located near irrigated fields and may also report irrigation

Forrest Carberry Wawanesa Glenboro Glenora Treherne Holland Gladstone Portage East High Bluff Oakland Elm Creek Carman Winkler Kuhl Farm Morris St.Adolphe Steinbach Selkirk Shilo Rivers Somerset Reinland Altona Starbuck St.Pierre Winkler Kane Brunkild Austin Bagot Elie Kenton Neepawa St. Claude




Austin - Historical Weather Data
Date Max Temp (°C) Min Temp (°C) Avg Temp (°C) Rain (mm) Avg RH (%) Solar Radiation (W/m2)
10/20/2019 12.7 1.2 6.6 0.0 75.0 8.1
10/19/2019 12.0 1.2 6.3 0.0 79.0 7.7
10/18/2019 9.9 2.9 6.1 0.0 84.0 6.6
10/17/2019 6.6 -0.9 2.5 0.0 89.0 10.3
10/16/2019 3.5 -0.1 1.3 0.0 89.0 4.2
10/15/2019 2.8 0.3 1.3 0.2 90.0 5.6
10/14/2019 4.1 -0.7 1.5 0.0 87.0 6.7
10/13/2019 2.2 -0.3 0.5 0.0 90.0 7.3
10/12/2019 0.6 -1.1 -0.3 6.0 96.0 6.9
10/11/2019 -1.0 -1.4 -1.2 15.2 98.0 1.9
10/10/2019 0.0 -1.2 -0.6 4.6 98.0 2.9
10/9/2019 6.6 -0.8 2.4 1.4 89.0 1.5
10/8/2019 22.2 6.6 14.3 0.0 56.0 10.6
10/7/2019 19.0 2.0 10.4 0.0 61.0 13.4
10/6/2019 15.1 7.2 10.1 0.0 66.0 8.6
10/5/2019 8.7 4.8 6.4 19.6 91.0 3.8
10/4/2019 9.3 0.7 5.9 0.0 78.0 8.0
10/3/2019 8.3 0.6 4.5 0.0 79.0 6.4
10/2/2019 5.0 2.4 3.5 0.2 86.0 5.0
10/1/2019 5.6 0.0 2.8 0.0 87.0 6.7
9/30/2019 5.2 1.7 4.2 7.4 94.0 1.6
9/29/2019 5.1 3.0 4.1 28.2 88.0 1.4
9/28/2019 9.0 -0.1 4.4 0.0 69.0 13.5
9/27/2019 9.9 1.4 6.3 0.0 79.0 9.5
9/26/2019 10.5 5.7 7.9 12.7 82.0 4.9
9/25/2019 13.7 6.1 9.9 0.0 65.0 9.1
9/24/2019 19.6 10.8 14.8 1.0 72.0 10.3
9/23/2019 25.6 9.2 16.8 0.0 66.0 16.3
9/22/2019 18.9 9.5 13.6 0.9 78.0 15.2
9/21/2019 17.5 11.7 14.6 47.4 94.0 1.6
9/20/2019 20.7 12.8 16.8 20.1 93.0 2.5
9/19/2019 21.6 9.4 15.5 0.0 81.0 16.7
9/18/2019 20.5 15.0 18.5 3.6 90.0 5.1
9/17/2019 29.5 16.9 23.3 0.0 79.0 15.9
9/16/2019 27.1 10.7 18.5 0.0 85.0 13.7
9/15/2019 28.1 10.8 18.4 0.0 66.0 16.5
9/14/2019 22.0 6.0 13.3 3.5 82.0 11.9
9/13/2019 18.0 7.0 11.5 4.9 77.0 15.2
9/12/2019 10.8 8.8 9.8 9.3 86.0 3.6
9/11/2019 14.6 9.1 11.6 0.0 85.0 6.4
9/10/2019 13.7 10.4 12.1 3.3 89.0 4.8
9/9/2019 15.4 3.7 10.1 13.3 89.0 6.0
9/8/2019 19.1 1.8 10.4 0.0 73.0 20.1
9/7/2019 14.3 4.6 10.3 0.0 76.0 13.0
9/6/2019 22.3 10.5 16.1 0.0 68.0 18.8
9/5/2019 22.9 13.9 17.5 19.3 80.0 17.0
9/4/2019 24.9 7.2 15.7 0.6 72.0 17.7
9/3/2019 15.4 9.8 12.3 0.2 84.0 7.8
9/2/2019 15.4 5.1 11.1 1.9 84.0 9.9
9/1/2019 21.1 11.0 16.0 10.6 80.0 16.4
8/31/2019 19.9 10.9 14.6 13.8 81.0 12.3
8/30/2019 21.2 6.7 14.2 0.0 62.0 17.3
8/29/2019 20.0 9.9 14.5 0.0 62.0 21.4
8/28/2019 22.0 8.1 14.6 0.3 68.0 15.8
8/27/2019 14.3 11.6 12.9 2.1 78.0 6.6
8/26/2019 21.5 12.5 16.6 19.4 87.0 9.6
8/25/2019 23.4 16.7 20.2 1.4 84.0 7.4
8/24/2019 29.3 19.6 23.5 0.0 66.0 15.4
8/23/2019 27.0 8.9 18.4 1.1 69.0 16.7
8/22/2019 22.9 3.4 14.1 0.0 71.0 22.3
8/21/2019 20.6 7.0 14.1 0.0 65.0 19.8
8/20/2019 22.8 10.8 16.5 0.0 63.0 23.6
8/19/2019 25.6 9.4 18.0 1.3 58.0 22.7
8/18/2019 23.3 7.0 15.3 0.0 58.0 20.9
8/17/2019 21.2 12.0 16.4 0.0 68.0 11.6
8/16/2019 28.1 12.0 20.3 0.0 65.0 22.9
8/15/2019 26.5 12.5 19.1 0.0 68.0 20.4
8/14/2019 24.0 9.1 16.9 0.0 69.0 20.4
8/13/2019 23.5 11.2 17.1 0.5 69.0 19.7
8/12/2019 19.1 7.6 13.7 2.9 80.0 8.4
8/11/2019 23.3 9.3 16.0 0.0 70.0 24.0
8/10/2019 19.4 13.0 17.1 2.3 85.0 7.3
8/9/2019 27.1 9.7 18.6 0.0 63.0 24.1
8/8/2019 23.9 9.6 16.4 0.0 62.0 23.2
8/7/2019 21.8 10.3 16.6 0.3 64.0 24.4
8/6/2019 26.4 13.1 19.8 1.0 72.0 11.1
8/5/2019 27.4 13.7 20.4 0.0 61.0 23.1
8/4/2019 29.3 17.0 23.8 0.0 60.0 25.0
8/3/2019 30.9 17.8 24.3 0.0 72.0 23.1
8/2/2019 30.6 15.4 23.3 0.0 73.0 25.1
8/1/2019 29.4 14.5 22.5 0.0 70.0 24.0
7/31/2019 30.0 11.8 21.1 0.0 71.0 22.9
7/30/2019 24.8 7.0 16.5 0.0 62.0 26.2
7/29/2019 21.0 10.2 16.3 0.0 57.0 27.6
7/28/2019 27.0 17.9 21.9 0.0 60.0 16.8
7/27/2019 29.2 15.8 22.5 0.0 68.0 27.1
7/26/2019 23.6 15.3 19.5 1.7 71.0 14.8
7/25/2019 27.2 17.7 22.9 0.0 60.0 26.9
7/24/2019 29.0 15.2 22.6 0.0 68.0 25.0
7/23/2019 27.5 13.8 21.3 0.0 68.0 23.3
7/22/2019 26.4 11.0 19.4 0.0 66.0 27.7
7/21/2019 22.9 9.9 16.9 0.0 70.0 25.9
7/20/2019 21.4 12.4 16.7 1.4 77.0 20.4
7/19/2019 23.8 13.6 19.5 0.1 65.0 28.2
7/18/2019 27.0 15.4 20.8 0.4 74.0 22.3
7/17/2019 25.8 17.5 20.1 16.3 84.0 12.8
7/16/2019 26.2 15.1 20.5 0.0 73.0 26.0
7/15/2019 26.5 19.3 23.5 14.5 75.0 26.9
7/14/2019 31.5 17.3 24.7 15.0 76.0 26.8
7/13/2019 29.4 12.5 22.0 0.0 68.0 27.7
7/12/2019 25.0 16.3 20.1 0.0 74.0 23.6
7/11/2019 29.6 14.8 22.4 1.4 71.0 25.2
7/10/2019 25.1 17.3 20.7 5.3 74.0 25.8
7/9/2019 23.0 16.1 18.7 26.6 92.0 4.3
7/8/2019 30.8 20.5 24.6 0.4 66.0 21.4
7/7/2019 28.4 16.0 22.2 0.0 55.0 24.5
7/6/2019 24.9 7.2 17.1 0.0 61.0 28.5
7/5/2019 22.5 11.7 17.7 0.0 63.0 25.3
7/4/2019 25.1 11.3 19.3 0.0 62.0 24.8
7/3/2019 21.4 11.9 16.5 0.2 71.0 10.6
7/2/2019 23.8 15.0 19.2 2.4 65.0 27.1
7/1/2019 27.5 13.4 21.2 0.0 55.0 29.3
6/30/2019 28.7 16.7 23.3 0.0 56.0 29.8
6/29/2019 28.3 15.3 21.4 3.9 71.0 14.7
6/28/2019 28.4 12.3 21.2 0.0 61.0 24.6
6/27/2019 27.3 10.8 19.8 0.0 64.0 25.0
6/26/2019 27.0 10.3 19.8 0.0 61.0 28.6
6/25/2019 25.4 14.8 19.7 0.0 62.0 24.8
6/24/2019 26.3 11.8 19.1 0.0 63.0 25.0
6/23/2019 22.8 13.2 18.3 0.0 65.0 23.6
6/22/2019 22.4 12.0 17.6 1.1 70.0 17.9
6/21/2019 21.0 11.3 16.9 9.3 72.0 6.7
6/20/2019 24.8 8.7 17.6 0.0 63.0 18.6
6/19/2019 25.3 8.8 18.2 0.0 59.0 29.4
6/18/2019 23.7 7.9 16.7 0.0 58.0 26.7
6/17/2019 22.0 11.2 15.6 1.6 72.0 15.9
6/16/2019 15.7 10.1 12.4 0.6 83.0 6.9
6/15/2019 17.3 10.3 12.7 5.2 68.0 5.3
6/14/2019 25.8 12.9 19.5 0.0 55.0 27.3
6/13/2019 26.1 10.0 18.7 0.0 48.0 23.5
6/12/2019 21.2 3.5 13.6 0.0 45.0 30.6
6/11/2019 18.7 7.0 14.2 0.0 48.0 22.1
6/10/2019 20.7 7.0 14.1 0.0 50.0 30.5
6/9/2019 19.8 7.7 14.0 0.0 57.0 24.4
6/8/2019 24.4 10.3 15.7 6.0 76.0 6.1
6/7/2019 36.1 16.0 25.8 0.0 47.0 20.2
6/6/2019 26.2 9.1 18.3 0.0 58.0 28.3
6/5/2019 26.1 6.7 16.7 3.6 62.0 23.8
6/4/2019 23.4 10.8 17.6 0.0 67.0 27.5
6/3/2019 32.6 9.2 16.7 0.0 51.0 16.9
6/2/2019 19.0 0.3 10.7 0.0 48.0 25.0
6/1/2019 18.0 2.8 11.5 0.0 50.0 26.3
5/31/2019 15.6 5.6 10.5 0.0 56.0 26.9
5/30/2019 32.8 10.9 21.3 0.0 45.0 27.5
5/29/2019 26.5 8.8 18.8 0.0 47.0 24.4
5/28/2019 26.3 7.1 17.0 0.0 39.0 26.1
5/27/2019 18.4 -0.6 9.8 0.0 56.0 29.7
5/26/2019 12.3 3.5 7.6 5.7 71.0 18.0
5/25/2019 19.9 6.2 11.5 2.6 75.0 23.2
5/24/2019 10.7 5.5 9.1 10.6 84.0 5.5
5/23/2019 20.5 5.1 13.3 0.0 55.0 26.4
5/22/2019 16.0 9.5 12.1 0.0 57.0 8.5
5/21/2019 21.8 0.3 13.4 0.0 43.0 27.2
5/20/2019 19.6 2.9 11.6 0.0 50.0 26.4
5/19/2019 14.3 3.8 9.0 0.0 52.0 25.4
5/18/2019 11.5 1.3 6.8 0.0 54.0 22.2
5/17/2019 15.0 -2.8 7.3 0.0 54.0 25.7
5/16/2019 11.8 2.3 7.4 0.0 62.0 28.1
5/15/2019 14.2 1.2 9.3 6.2 66.0 6.7
5/14/2019 18.5 6.3 12.3 0.0 43.0 26.7
5/13/2019 27.1 12.3 18.7 0.0 34.0 24.1
5/12/2019 19.2 1.0 11.4 0.0 53.0 25.9
5/11/2019 16.9 6.1 12.2 0.0 53.0 18.6
5/10/2019 17.5 -1.9 8.9 0.0 40.0 21.8
5/9/2019 11.1 -3.8 4.3 0.0 47.0 23.8
5/8/2019 9.5 1.3 6.6 0.0 57.0 21.8
5/7/2019 16.0 -4.1 7.0 0.0 47.0 25.2
5/6/2019 6.7 -3.1 0.9 0.0 62.0 18.2
5/5/2019 4.3 -3.6 1.2 0.0 62.0 13.4
5/4/2019 12.6 1.7 6.9 0.2 50.0 25.3
5/3/2019 16.1 5.0 10.7 1.9 53.0 22.8
5/2/2019 15.2 -1.6 7.6 0.0 52.0 25.0
5/1/2019 10.3 -4.7 3.6 0.0 65.0 14.5